sensor_id;sensor_type;location;lat;lon;timestamp;P1;durP1;ratioP1;P2;durP2;ratioP2
59306;SDS011;47983;53.016;-2.260;2023-05-10T00:02:04;9.38;;;3.08;;
59306;SDS011;47983;53.016;-2.260;2023-05-10T00:04:32;15.50;;;3.63;;
59306;SDS011;47983;53.016;-2.260;2023-05-10T00:07:00;7.72;;;2.92;;
59306;SDS011;47983;53.016;-2.260;2023-05-10T00:09:28;11.30;;;2.85;;
59306;SDS011;47983;53.016;-2.260;2023-05-10T00:11:56;9.45;;;3.38;;
59306;SDS011;47983;53.016;-2.260;2023-05-10T00:14:25;8.52;;;3.13;;
59306;SDS011;47983;53.016;-2.260;2023-05-10T00:16:53;11.25;;;3.38;;
59306;SDS011;47983;53.016;-2.260;2023-05-10T00:19:21;12.18;;;4.10;;
59306;SDS011;47983;53.016;-2.260;2023-05-10T00:21:49;11.80;;;3.47;;
59306;SDS011;47983;53.016;-2.260;2023-05-10T00:24:17;14.93;;;4.53;;
59306;SDS011;47983;53.016;-2.260;2023-05-10T00:26:45;12.88;;;4.47;;
59306;SDS011;47983;53.016;-2.260;2023-05-10T00:29:13;14.07;;;3.92;;
59306;SDS011;47983;53.016;-2.260;2023-05-10T00:31:41;13.63;;;3.28;;
59306;SDS011;47983;53.016;-2.260;2023-05-10T00:34:09;10.88;;;3.40;;
59306;SDS011;47983;53.016;-2.260;2023-05-10T00:36:37;9.18;;;3.38;;
59306;SDS011;47983;53.016;-2.260;2023-05-10T00:39:08;11.07;;;3.00;;
59306;SDS011;47983;53.016;-2.260;2023-05-10T00:41:36;14.07;;;3.33;;
59306;SDS011;47983;53.016;-2.260;2023-05-10T00:44:06;11.02;;;3.45;;
59306;SDS011;47983;53.016;-2.260;2023-05-10T00:46:33;11.07;;;4.18;;
59306;SDS011;47983;53.016;-2.260;2023-05-10T00:49:02;13.38;;;3.72;;
59306;SDS011;47983;53.016;-2.260;2023-05-10T00:51:30;11.38;;;3.65;;
59306;SDS011;47983;53.016;-2.260;2023-05-10T00:53:58;13.00;;;2.85;;
59306;SDS011;47983;53.016;-2.260;2023-05-10T00:56:26;12.77;;;3.30;;
59306;SDS011;47983;53.016;-2.260;2023-05-10T01:01:24;18.35;;;3.67;;
59306;SDS011;47983;53.016;-2.260;2023-05-10T01:03:52;12.98;;;2.90;;
59306;SDS011;47983;53.016;-2.260;2023-05-10T01:06:21;14.73;;;2.95;;
59306;SDS011;47983;53.016;-2.260;2023-05-10T01:08:49;11.80;;;4.20;;
59306;SDS011;47983;53.016;-2.260;2023-05-10T01:11:17;7.70;;;3.00;;
59306;SDS011;47983;53.016;-2.260;2023-05-10T01:13:46;12.68;;;3.58;;
59306;SDS011;47983;53.016;-2.260;2023-05-10T01:16:22;9.75;;;3.50;;
59306;SDS011;47983;53.016;-2.260;2023-05-10T01:18:51;12.38;;;3.78;;
59306;SDS011;47983;53.016;-2.260;2023-05-10T01:26:52;12.98;;;4.07;;
59306;SDS011;47983;53.016;-2.260;2023-05-10T01:38:33;10.27;;;3.35;;
59306;SDS011;47983;53.016;-2.260;2023-05-10T01:41:13;10.43;;;3.22;;
59306;SDS011;47983;53.016;-2.260;2023-05-10T01:46:17;10.48;;;3.38;;
59306;SDS011;47983;53.016;-2.260;2023-05-10T01:48:52;11.93;;;3.50;;
59306;SDS011;47983;53.016;-2.260;2023-05-10T01:51:23;19.75;;;3.92;;
59306;SDS011;47983;53.016;-2.260;2023-05-10T01:53:57;16.20;;;4.93;;
59306;SDS011;47983;53.016;-2.260;2023-05-10T01:56:29;14.75;;;4.10;;
59306;SDS011;47983;53.016;-2.260;2023-05-10T01:59:00;16.35;;;3.75;;
59306;SDS011;47983;53.016;-2.260;2023-05-10T02:01:33;11.40;;;4.00;;
59306;SDS011;47983;53.016;-2.260;2023-05-10T02:04:04;10.60;;;2.88;;
59306;SDS011;47983;53.016;-2.260;2023-05-10T02:09:02;13.10;;;2.80;;
59306;SDS011;47983;53.016;-2.260;2023-05-10T02:11:30;12.68;;;3.70;;
59306;SDS011;47983;53.016;-2.260;2023-05-10T02:13:59;12.45;;;3.90;;
59306;SDS011;47983;53.016;-2.260;2023-05-10T02:16:29;16.75;;;4.65;;
59306;SDS011;47983;53.016;-2.260;2023-05-10T02:18:59;14.23;;;3.30;;
59306;SDS011;47983;53.016;-2.260;2023-05-10T02:21:29;10.60;;;3.72;;
59306;SDS011;47983;53.016;-2.260;2023-05-10T02:23:58;10.82;;;3.42;;
59306;SDS011;47983;53.016;-2.260;2023-05-10T02:26:28;9.80;;;3.63;;
59306;SDS011;47983;53.016;-2.260;2023-05-10T02:28:58;15.95;;;4.53;;
59306;SDS011;47983;53.016;-2.260;2023-05-10T02:31:33;11.57;;;2.95;;
59306;SDS011;47983;53.016;-2.260;2023-05-10T02:34:04;13.75;;;3.05;;
59306;SDS011;47983;53.016;-2.260;2023-05-10T02:36:35;5.35;;;2.90;;
59306;SDS011;47983;53.016;-2.260;2023-05-10T02:39:04;12.35;;;3.67;;
59306;SDS011;47983;53.016;-2.260;2023-05-10T02:41:40;10.80;;;3.80;;
59306;SDS011;47983;53.016;-2.260;2023-05-10T02:44:09;14.07;;;4.30;;
59306;SDS011;47983;53.016;-2.260;2023-05-10T02:46:38;11.50;;;3.90;;
59306;SDS011;47983;53.016;-2.260;2023-05-10T02:49:06;8.82;;;3.65;;
59306;SDS011;47983;53.016;-2.260;2023-05-10T02:51:35;14.68;;;4.68;;
59306;SDS011;47983;53.016;-2.260;2023-05-10T02:54:11;15.20;;;3.55;;
59306;SDS011;47983;53.016;-2.260;2023-05-10T02:56:44;14.82;;;4.07;;
59306;SDS011;47983;53.016;-2.260;2023-05-10T02:59:17;8.07;;;3.30;;
59306;SDS011;47983;53.016;-2.260;2023-05-10T03:01:45;15.00;;;3.60;;
59306;SDS011;47983;53.016;-2.260;2023-05-10T03:04:14;13.20;;;3.63;;
59306;SDS011;47983;53.016;-2.260;2023-05-10T03:06:42;19.50;;;5.22;;
59306;SDS011;47983;53.016;-2.260;2023-05-10T03:09:11;14.00;;;3.75;;
59306;SDS011;47983;53.016;-2.260;2023-05-10T03:14:16;13.07;;;4.25;;
59306;SDS011;47983;53.016;-2.260;2023-05-10T03:16:56;16.27;;;4.50;;
59306;SDS011;47983;53.016;-2.260;2023-05-10T03:19:30;11.13;;;4.10;;
59306;SDS011;47983;53.016;-2.260;2023-05-10T03:22:08;17.42;;;4.47;;
59306;SDS011;47983;53.016;-2.260;2023-05-10T03:24:39;15.02;;;4.45;;
59306;SDS011;47983;53.016;-2.260;2023-05-10T03:27:09;14.95;;;3.83;;
59306;SDS011;47983;53.016;-2.260;2023-05-10T03:29:38;14.00;;;3.45;;
59306;SDS011;47983;53.016;-2.260;2023-05-10T03:32:09;13.60;;;4.15;;
59306;SDS011;47983;53.016;-2.260;2023-05-10T03:34:41;15.55;;;4.05;;
59306;SDS011;47983;53.016;-2.260;2023-05-10T03:37:12;9.43;;;3.75;;
59306;SDS011;47983;53.016;-2.260;2023-05-10T03:39:40;12.50;;;4.25;;
59306;SDS011;47983;53.016;-2.260;2023-05-10T03:42:10;15.68;;;5.22;;
59306;SDS011;47983;53.016;-2.260;2023-05-10T03:44:39;11.55;;;4.78;;
59306;SDS011;47983;53.016;-2.260;2023-05-10T03:47:08;13.23;;;3.55;;
59306;SDS011;47983;53.016;-2.260;2023-05-10T03:49:37;16.02;;;3.85;;
59306;SDS011;47983;53.016;-2.260;2023-05-10T03:52:06;13.57;;;4.20;;
59306;SDS011;47983;53.016;-2.260;2023-05-10T03:54:34;17.00;;;4.75;;
59306;SDS011;47983;53.016;-2.260;2023-05-10T03:57:02;18.38;;;4.18;;
59306;SDS011;47983;53.016;-2.260;2023-05-10T03:59:31;12.07;;;4.60;;
59306;SDS011;47983;53.016;-2.260;2023-05-10T04:01:59;11.02;;;4.13;;
59306;SDS011;47983;53.016;-2.260;2023-05-10T04:04:27;11.10;;;4.10;;
59306;SDS011;47983;53.016;-2.260;2023-05-10T04:06:55;11.93;;;4.55;;
59306;SDS011;47983;53.016;-2.260;2023-05-10T04:09:23;12.13;;;4.00;;
59306;SDS011;47983;53.016;-2.260;2023-05-10T04:11:51;13.48;;;3.55;;
59306;SDS011;47983;53.016;-2.260;2023-05-10T04:14:18;9.27;;;3.60;;
59306;SDS011;47983;53.016;-2.260;2023-05-10T04:16:46;17.75;;;3.88;;
59306;SDS011;47983;53.016;-2.260;2023-05-10T04:19:14;8.88;;;3.70;;
59306;SDS011;47983;53.016;-2.260;2023-05-10T04:21:42;12.88;;;3.92;;
59306;SDS011;47983;53.016;-2.260;2023-05-10T04:24:09;14.70;;;4.18;;
59306;SDS011;47983;53.016;-2.260;2023-05-10T04:26:39;23.85;;;5.38;;
59306;SDS011;47983;53.016;-2.260;2023-05-10T04:29:07;13.48;;;4.60;;
59306;SDS011;47983;53.016;-2.260;2023-05-10T04:31:38;16.58;;;4.22;;
59306;SDS011;47983;53.016;-2.260;2023-05-10T04:34:06;13.60;;;3.97;;
59306;SDS011;47983;53.016;-2.260;2023-05-10T04:36:33;12.75;;;4.03;;
59306;SDS011;47983;53.016;-2.260;2023-05-10T04:39:03;13.27;;;4.28;;
59306;SDS011;47983;53.016;-2.260;2023-05-10T04:41:31;11.43;;;4.43;;
59306;SDS011;47983;53.016;-2.260;2023-05-10T04:43:58;12.23;;;4.20;;
59306;SDS011;47983;53.016;-2.260;2023-05-10T04:46:26;9.57;;;3.80;;
59306;SDS011;47983;53.016;-2.260;2023-05-10T04:48:55;14.05;;;4.15;;
59306;SDS011;47983;53.016;-2.260;2023-05-10T04:51:23;14.73;;;4.15;;
59306;SDS011;47983;53.016;-2.260;2023-05-10T04:53:51;9.57;;;2.92;;
59306;SDS011;47983;53.016;-2.260;2023-05-10T04:56:32;13.70;;;3.95;;
59306;SDS011;47983;53.016;-2.260;2023-05-10T04:59:00;11.45;;;3.95;;
59306;SDS011;47983;53.016;-2.260;2023-05-10T05:01:28;15.20;;;3.63;;
59306;SDS011;47983;53.016;-2.260;2023-05-10T05:03:56;8.73;;;3.42;;
59306;SDS011;47983;53.016;-2.260;2023-05-10T05:06:25;15.23;;;4.45;;
59306;SDS011;47983;53.016;-2.260;2023-05-10T05:08:54;12.13;;;4.60;;
59306;SDS011;47983;53.016;-2.260;2023-05-10T05:11:22;12.88;;;3.88;;
59306;SDS011;47983;53.016;-2.260;2023-05-10T05:13:50;12.70;;;4.38;;
59306;SDS011;47983;53.016;-2.260;2023-05-10T05:16:18;18.50;;;5.60;;
59306;SDS011;47983;53.016;-2.260;2023-05-10T05:18:46;11.20;;;5.35;;
59306;SDS011;47983;53.016;-2.260;2023-05-10T05:21:18;14.75;;;5.50;;
59306;SDS011;47983;53.016;-2.260;2023-05-10T05:23:46;13.20;;;5.53;;
59306;SDS011;47983;53.016;-2.260;2023-05-10T05:26:14;13.48;;;5.68;;
59306;SDS011;47983;53.016;-2.260;2023-05-10T05:28:48;18.13;;;5.88;;
59306;SDS011;47983;53.016;-2.260;2023-05-10T05:31:18;19.60;;;5.40;;
59306;SDS011;47983;53.016;-2.260;2023-05-10T05:33:48;17.48;;;4.82;;
59306;SDS011;47983;53.016;-2.260;2023-05-10T05:36:16;18.17;;;6.15;;
59306;SDS011;47983;53.016;-2.260;2023-05-10T05:38:47;14.57;;;4.70;;
59306;SDS011;47983;53.016;-2.260;2023-05-10T05:41:15;13.15;;;4.43;;
59306;SDS011;47983;53.016;-2.260;2023-05-10T05:43:46;13.25;;;4.28;;
59306;SDS011;47983;53.016;-2.260;2023-05-10T05:46:14;14.43;;;4.57;;
59306;SDS011;47983;53.016;-2.260;2023-05-10T05:48:42;15.80;;;4.25;;
59306;SDS011;47983;53.016;-2.260;2023-05-10T05:51:13;15.10;;;6.35;;
59306;SDS011;47983;53.016;-2.260;2023-05-10T05:53:44;12.15;;;4.97;;
59306;SDS011;47983;53.016;-2.260;2023-05-10T05:56:12;15.70;;;4.65;;
59306;SDS011;47983;53.016;-2.260;2023-05-10T05:58:40;12.73;;;4.25;;
59306;SDS011;47983;53.016;-2.260;2023-05-10T06:01:07;15.13;;;4.38;;
59306;SDS011;47983;53.016;-2.260;2023-05-10T06:03:35;14.18;;;4.93;;
59306;SDS011;47983;53.016;-2.260;2023-05-10T06:06:03;14.30;;;4.55;;
59306;SDS011;47983;53.016;-2.260;2023-05-10T06:08:34;17.85;;;5.22;;
59306;SDS011;47983;53.016;-2.260;2023-05-10T06:11:03;12.43;;;4.50;;
59306;SDS011;47983;53.016;-2.260;2023-05-10T06:13:31;15.60;;;4.90;;
59306;SDS011;47983;53.016;-2.260;2023-05-10T06:16:00;10.65;;;4.43;;
59306;SDS011;47983;53.016;-2.260;2023-05-10T06:18:29;11.00;;;4.77;;
59306;SDS011;47983;53.016;-2.260;2023-05-10T06:20:57;22.63;;;5.40;;
59306;SDS011;47983;53.016;-2.260;2023-05-10T06:23:25;11.57;;;3.75;;
59306;SDS011;47983;53.016;-2.260;2023-05-10T06:25:53;18.27;;;4.38;;
59306;SDS011;47983;53.016;-2.260;2023-05-10T06:28:21;16.80;;;4.97;;
59306;SDS011;47983;53.016;-2.260;2023-05-10T06:30:49;12.35;;;3.80;;
59306;SDS011;47983;53.016;-2.260;2023-05-10T06:33:17;13.23;;;3.88;;
59306;SDS011;47983;53.016;-2.260;2023-05-10T06:35:45;19.27;;;3.75;;
59306;SDS011;47983;53.016;-2.260;2023-05-10T06:38:13;10.77;;;3.00;;
59306;SDS011;47983;53.016;-2.260;2023-05-10T06:40:41;8.80;;;3.80;;
59306;SDS011;47983;53.016;-2.260;2023-05-10T06:43:09;12.10;;;3.85;;
59306;SDS011;47983;53.016;-2.260;2023-05-10T06:45:37;17.05;;;4.18;;
59306;SDS011;47983;53.016;-2.260;2023-05-10T06:48:05;13.07;;;3.15;;
59306;SDS011;47983;53.016;-2.260;2023-05-10T06:50:37;10.40;;;3.42;;
59306;SDS011;47983;53.016;-2.260;2023-05-10T06:53:08;12.93;;;2.65;;
59306;SDS011;47983;53.016;-2.260;2023-05-10T06:55:35;14.13;;;2.75;;
59306;SDS011;47983;53.016;-2.260;2023-05-10T07:00:39;9.52;;;2.80;;
59306;SDS011;47983;53.016;-2.260;2023-05-10T07:03:10;9.68;;;2.70;;
59306;SDS011;47983;53.016;-2.260;2023-05-10T07:05:38;23.13;;;3.10;;
59306;SDS011;47983;53.016;-2.260;2023-05-10T07:08:06;13.27;;;2.42;;
59306;SDS011;47983;53.016;-2.260;2023-05-10T07:10:37;12.93;;;3.05;;
59306;SDS011;47983;53.016;-2.260;2023-05-10T07:13:05;13.02;;;2.33;;
59306;SDS011;47983;53.016;-2.260;2023-05-10T07:15:33;7.30;;;1.92;;
59306;SDS011;47983;53.016;-2.260;2023-05-10T07:18:01;6.90;;;1.95;;
59306;SDS011;47983;53.016;-2.260;2023-05-10T07:20:29;6.50;;;2.35;;
59306;SDS011;47983;53.016;-2.260;2023-05-10T07:22:57;8.70;;;1.90;;
59306;SDS011;47983;53.016;-2.260;2023-05-10T07:25:26;5.57;;;1.70;;
59306;SDS011;47983;53.016;-2.260;2023-05-10T07:27:54;10.07;;;1.83;;
59306;SDS011;47983;53.016;-2.260;2023-05-10T07:30:22;6.80;;;1.90;;
59306;SDS011;47983;53.016;-2.260;2023-05-10T07:32:50;6.85;;;1.45;;
59306;SDS011;47983;53.016;-2.260;2023-05-10T07:35:18;9.68;;;2.22;;
59306;SDS011;47983;53.016;-2.260;2023-05-10T07:37:46;5.35;;;1.50;;
59306;SDS011;47983;53.016;-2.260;2023-05-10T07:40:14;10.55;;;2.15;;
59306;SDS011;47983;53.016;-2.260;2023-05-10T07:42:42;11.00;;;2.00;;
59306;SDS011;47983;53.016;-2.260;2023-05-10T07:45:10;4.95;;;2.17;;
59306;SDS011;47983;53.016;-2.260;2023-05-10T07:47:38;12.02;;;2.60;;
59306;SDS011;47983;53.016;-2.260;2023-05-10T07:50:07;11.40;;;2.42;;
59306;SDS011;47983;53.016;-2.260;2023-05-10T07:52:35;8.30;;;1.60;;
59306;SDS011;47983;53.016;-2.260;2023-05-10T07:55:05;10.20;;;2.33;;
59306;SDS011;47983;53.016;-2.260;2023-05-10T07:57:37;8.98;;;2.53;;
59306;SDS011;47983;53.016;-2.260;2023-05-10T08:00:05;5.18;;;1.70;;
59306;SDS011;47983;53.016;-2.260;2023-05-10T08:02:40;4.32;;;1.92;;
59306;SDS011;47983;53.016;-2.260;2023-05-10T08:05:09;6.38;;;1.33;;
59306;SDS011;47983;53.016;-2.260;2023-05-10T08:07:37;9.35;;;2.25;;
59306;SDS011;47983;53.016;-2.260;2023-05-10T08:10:05;6.35;;;1.77;;
59306;SDS011;47983;53.016;-2.260;2023-05-10T08:12:37;6.15;;;2.22;;
59306;SDS011;47983;53.016;-2.260;2023-05-10T08:15:06;11.07;;;2.72;;
59306;SDS011;47983;53.016;-2.260;2023-05-10T08:17:34;4.82;;;2.20;;
59306;SDS011;47983;53.016;-2.260;2023-05-10T08:20:03;7.35;;;2.40;;
59306;SDS011;47983;53.016;-2.260;2023-05-10T08:22:31;6.57;;;2.47;;
59306;SDS011;47983;53.016;-2.260;2023-05-10T08:27:29;8.30;;;1.88;;
59306;SDS011;47983;53.016;-2.260;2023-05-10T08:29:57;13.88;;;2.58;;
59306;SDS011;47983;53.016;-2.260;2023-05-10T08:32:25;10.95;;;3.63;;
59306;SDS011;47983;53.016;-2.260;2023-05-10T08:34:52;8.15;;;1.92;;
59306;SDS011;47983;53.016;-2.260;2023-05-10T08:37:20;10.65;;;2.45;;
59306;SDS011;47983;53.016;-2.260;2023-05-10T08:39:48;3.53;;;1.63;;
59306;SDS011;47983;53.016;-2.260;2023-05-10T08:42:16;5.93;;;1.73;;
59306;SDS011;47983;53.016;-2.260;2023-05-10T08:44:49;4.72;;;1.95;;
59306;SDS011;47983;53.016;-2.260;2023-05-10T08:47:20;3.75;;;2.30;;
59306;SDS011;47983;53.016;-2.260;2023-05-10T08:49:48;6.10;;;2.00;;
59306;SDS011;47983;53.016;-2.260;2023-05-10T08:52:18;6.43;;;2.20;;
59306;SDS011;47983;53.016;-2.260;2023-05-10T08:54:47;4.75;;;2.28;;
59306;SDS011;47983;53.016;-2.260;2023-05-10T08:57:15;8.88;;;2.38;;
59306;SDS011;47983;53.016;-2.260;2023-05-10T08:59:44;7.85;;;2.78;;
59306;SDS011;47983;53.016;-2.260;2023-05-10T09:02:12;6.05;;;2.47;;
59306;SDS011;47983;53.016;-2.260;2023-05-10T09:04:44;7.18;;;2.33;;
59306;SDS011;47983;53.016;-2.260;2023-05-10T09:07:12;10.27;;;2.50;;
59306;SDS011;47983;53.016;-2.260;2023-05-10T09:09:44;8.70;;;2.28;;
59306;SDS011;47983;53.016;-2.260;2023-05-10T09:12:13;6.93;;;3.05;;
59306;SDS011;47983;53.016;-2.260;2023-05-10T09:14:43;8.02;;;2.60;;
59306;SDS011;47983;53.016;-2.260;2023-05-10T09:17:12;7.77;;;2.87;;
59306;SDS011;47983;53.016;-2.260;2023-05-10T09:19:44;6.93;;;2.38;;
59306;SDS011;47983;53.016;-2.260;2023-05-10T09:22:12;9.02;;;2.42;;
59306;SDS011;47983;53.016;-2.260;2023-05-10T09:24:42;9.55;;;2.60;;
59306;SDS011;47983;53.016;-2.260;2023-05-10T09:27:12;9.75;;;2.33;;
59306;SDS011;47983;53.016;-2.260;2023-05-10T09:29:41;5.07;;;1.45;;
59306;SDS011;47983;53.016;-2.260;2023-05-10T09:32:11;4.55;;;1.35;;
59306;SDS011;47983;53.016;-2.260;2023-05-10T09:34:41;3.22;;;1.70;;
59306;SDS011;47983;53.016;-2.260;2023-05-10T09:37:10;3.47;;;1.65;;
59306;SDS011;47983;53.016;-2.260;2023-05-10T09:39:38;7.32;;;1.45;;
59306;SDS011;47983;53.016;-2.260;2023-05-10T09:42:09;1.75;;;1.17;;
59306;SDS011;47983;53.016;-2.260;2023-05-10T09:44:37;11.25;;;1.77;;
59306;SDS011;47983;53.016;-2.260;2023-05-10T09:47:10;2.60;;;1.00;;
59306;SDS011;47983;53.016;-2.260;2023-05-10T09:49:49;6.13;;;1.52;;
59306;SDS011;47983;53.016;-2.260;2023-05-10T09:52:18;3.50;;;0.88;;
59306;SDS011;47983;53.016;-2.260;2023-05-10T09:54:52;6.82;;;1.23;;
59306;SDS011;47983;53.016;-2.260;2023-05-10T09:57:21;2.53;;;0.70;;
59306;SDS011;47983;53.016;-2.260;2023-05-10T09:59:50;2.67;;;0.68;;
59306;SDS011;47983;53.016;-2.260;2023-05-10T10:02:19;3.15;;;0.80;;
59306;SDS011;47983;53.016;-2.260;2023-05-10T10:04:52;4.32;;;1.00;;
59306;SDS011;47983;53.016;-2.260;2023-05-10T10:07:22;7.30;;;0.70;;
59306;SDS011;47983;53.016;-2.260;2023-05-10T10:09:52;2.38;;;0.70;;
59306;SDS011;47983;53.016;-2.260;2023-05-10T10:12:20;4.43;;;1.10;;
59306;SDS011;47983;53.016;-2.260;2023-05-10T10:14:48;4.15;;;0.70;;
59306;SDS011;47983;53.016;-2.260;2023-05-10T10:17:19;2.53;;;0.93;;
59306;SDS011;47983;53.016;-2.260;2023-05-10T10:19:49;6.35;;;1.13;;
59306;SDS011;47983;53.016;-2.260;2023-05-10T10:22:17;2.63;;;0.90;;
59306;SDS011;47983;53.016;-2.260;2023-05-10T10:24:45;4.50;;;0.70;;
59306;SDS011;47983;53.016;-2.260;2023-05-10T10:27:37;1.92;;;0.70;;
59306;SDS011;47983;53.016;-2.260;2023-05-10T10:30:31;4.78;;;1.35;;
59306;SDS011;47983;53.016;-2.260;2023-05-10T10:33:36;2.95;;;0.80;;
59306;SDS011;47983;53.016;-2.260;2023-05-10T10:36:19;0.70;;;0.50;;
59306;SDS011;47983;53.016;-2.260;2023-05-10T10:41:30;1.83;;;0.40;;
59306;SDS011;47983;53.016;-2.260;2023-05-10T10:57:58;1.65;;;0.40;;
59306;SDS011;47983;53.016;-2.260;2023-05-10T11:00:30;2.10;;;0.40;;
59306;SDS011;47983;53.016;-2.260;2023-05-10T11:03:03;1.65;;;0.68;;
59306;SDS011;47983;53.016;-2.260;2023-05-10T11:05:37;3.67;;;1.92;;
59306;SDS011;47983;53.016;-2.260;2023-05-10T11:08:12;2.40;;;0.80;;
59306;SDS011;47983;53.016;-2.260;2023-05-10T11:13:34;2.45;;;0.40;;
59306;SDS011;47983;53.016;-2.260;2023-05-10T11:16:19;1.90;;;0.80;;
59306;SDS011;47983;53.016;-2.260;2023-05-10T11:18:52;1.60;;;0.77;;
59306;SDS011;47983;53.016;-2.260;2023-05-10T11:21:20;4.15;;;0.90;;
59306;SDS011;47983;53.016;-2.260;2023-05-10T11:23:50;2.55;;;0.40;;
59306;SDS011;47983;53.016;-2.260;2023-05-10T11:26:19;1.40;;;0.50;;
59306;SDS011;47983;53.016;-2.260;2023-05-10T11:28:50;4.80;;;0.70;;
59306;SDS011;47983;53.016;-2.260;2023-05-10T11:31:20;4.22;;;0.75;;
59306;SDS011;47983;53.016;-2.260;2023-05-10T11:33:50;2.90;;;1.00;;
59306;SDS011;47983;53.016;-2.260;2023-05-10T11:36:23;3.63;;;1.10;;
59306;SDS011;47983;53.016;-2.260;2023-05-10T11:38:53;3.20;;;1.00;;
59306;SDS011;47983;53.016;-2.260;2023-05-10T11:41:22;1.02;;;0.70;;
59306;SDS011;47983;53.016;-2.260;2023-05-10T11:43:51;2.83;;;0.85;;
59306;SDS011;47983;53.016;-2.260;2023-05-10T11:46:20;2.90;;;0.90;;
59306;SDS011;47983;53.016;-2.260;2023-05-10T11:48:54;5.28;;;0.80;;
59306;SDS011;47983;53.016;-2.260;2023-05-10T11:51:28;4.88;;;0.77;;
59306;SDS011;47983;53.016;-2.260;2023-05-10T11:53:56;1.38;;;0.60;;
59306;SDS011;47983;53.016;-2.260;2023-05-10T11:56:24;2.90;;;1.00;;
59306;SDS011;47983;53.016;-2.260;2023-05-10T11:58:54;2.35;;;0.50;;
59306;SDS011;47983;53.016;-2.260;2023-05-10T12:01:25;0.70;;;0.40;;
59306;SDS011;47983;53.016;-2.260;2023-05-10T12:03:55;3.95;;;0.60;;
59306;SDS011;47983;53.016;-2.260;2023-05-10T12:06:28;2.72;;;0.73;;
59306;SDS011;47983;53.016;-2.260;2023-05-10T12:08:59;1.85;;;0.52;;
59306;SDS011;47983;53.016;-2.260;2023-05-10T12:11:35;2.05;;;0.40;;
59306;SDS011;47983;53.016;-2.260;2023-05-10T12:14:07;0.98;;;0.28;;
59306;SDS011;47983;53.016;-2.260;2023-05-10T12:16:36;3.88;;;0.75;;
59306;SDS011;47983;53.016;-2.260;2023-05-10T12:19:06;2.30;;;0.45;;
59306;SDS011;47983;53.016;-2.260;2023-05-10T12:21:35;0.95;;;0.43;;
59306;SDS011;47983;53.016;-2.260;2023-05-10T12:24:03;2.75;;;1.17;;
59306;SDS011;47983;53.016;-2.260;2023-05-10T12:26:32;1.88;;;0.70;;
59306;SDS011;47983;53.016;-2.260;2023-05-10T12:29:15;3.45;;;1.10;;
59306;SDS011;47983;53.016;-2.260;2023-05-10T12:31:55;3.75;;;1.27;;
59306;SDS011;47983;53.016;-2.260;2023-05-10T12:34:34;5.25;;;2.35;;
59306;SDS011;47983;53.016;-2.260;2023-05-10T12:37:03;9.32;;;4.47;;
59306;SDS011;47983;53.016;-2.260;2023-05-10T12:39:39;5.78;;;3.22;;
59306;SDS011;47983;53.016;-2.260;2023-05-10T12:42:07;19.83;;;5.57;;
59306;SDS011;47983;53.016;-2.260;2023-05-10T12:44:35;8.48;;;2.80;;
59306;SDS011;47983;53.016;-2.260;2023-05-10T12:49:33;5.63;;;1.20;;
59306;SDS011;47983;53.016;-2.260;2023-05-10T12:52:01;3.45;;;0.95;;
59306;SDS011;47983;53.016;-2.260;2023-05-10T12:54:29;3.15;;;1.10;;
59306;SDS011;47983;53.016;-2.260;2023-05-10T12:56:57;6.20;;;1.10;;
59306;SDS011;47983;53.016;-2.260;2023-05-10T12:59:25;2.95;;;1.50;;
59306;SDS011;47983;53.016;-2.260;2023-05-10T13:01:53;1.55;;;1.13;;
59306;SDS011;47983;53.016;-2.260;2023-05-10T13:04:21;3.53;;;0.90;;
59306;SDS011;47983;53.016;-2.260;2023-05-10T13:06:49;3.72;;;1.10;;
59306;SDS011;47983;53.016;-2.260;2023-05-10T13:09:17;3.58;;;1.20;;
59306;SDS011;47983;53.016;-2.260;2023-05-10T13:11:45;2.30;;;1.10;;
59306;SDS011;47983;53.016;-2.260;2023-05-10T13:14:14;5.85;;;1.13;;
59306;SDS011;47983;53.016;-2.260;2023-05-10T13:16:42;4.05;;;1.50;;
59306;SDS011;47983;53.016;-2.260;2023-05-10T13:19:10;5.85;;;1.60;;
59306;SDS011;47983;53.016;-2.260;2023-05-10T13:21:38;3.75;;;1.83;;
59306;SDS011;47983;53.016;-2.260;2023-05-10T13:24:08;4.03;;;1.80;;
59306;SDS011;47983;53.016;-2.260;2023-05-10T13:26:36;4.10;;;1.30;;
59306;SDS011;47983;53.016;-2.260;2023-05-10T13:29:03;2.63;;;1.50;;
59306;SDS011;47983;53.016;-2.260;2023-05-10T13:31:32;2.17;;;0.95;;
59306;SDS011;47983;53.016;-2.260;2023-05-10T13:34:00;1.45;;;1.27;;
59306;SDS011;47983;53.016;-2.260;2023-05-10T13:36:29;5.72;;;1.80;;
59306;SDS011;47983;53.016;-2.260;2023-05-10T13:38:56;7.78;;;1.55;;
59306;SDS011;47983;53.016;-2.260;2023-05-10T13:41:24;8.10;;;3.05;;
59306;SDS011;47983;53.016;-2.260;2023-05-10T13:43:52;5.18;;;2.10;;
59306;SDS011;47983;53.016;-2.260;2023-05-10T13:46:20;6.25;;;2.10;;
59306;SDS011;47983;53.016;-2.260;2023-05-10T13:48:48;8.48;;;2.45;;
59306;SDS011;47983;53.016;-2.260;2023-05-10T13:51:16;11.38;;;4.25;;
59306;SDS011;47983;53.016;-2.260;2023-05-10T13:53:44;7.30;;;2.10;;
59306;SDS011;47983;53.016;-2.260;2023-05-10T13:56:14;2.72;;;1.35;;
59306;SDS011;47983;53.016;-2.260;2023-05-10T13:58:42;5.15;;;1.30;;
59306;SDS011;47983;53.016;-2.260;2023-05-10T14:01:09;6.40;;;1.50;;
59306;SDS011;47983;53.016;-2.260;2023-05-10T14:03:39;3.88;;;1.40;;
59306;SDS011;47983;53.016;-2.260;2023-05-10T14:06:07;4.18;;;1.63;;
59306;SDS011;47983;53.016;-2.260;2023-05-10T14:08:35;4.68;;;1.65;;
59306;SDS011;47983;53.016;-2.260;2023-05-10T14:11:03;5.70;;;1.70;;
59306;SDS011;47983;53.016;-2.260;2023-05-10T14:13:31;2.83;;;1.23;;
59306;SDS011;47983;53.016;-2.260;2023-05-10T14:16:00;3.88;;;1.80;;
59306;SDS011;47983;53.016;-2.260;2023-05-10T14:18:28;1.83;;;1.60;;
59306;SDS011;47983;53.016;-2.260;2023-05-10T14:20:58;4.30;;;1.25;;
59306;SDS011;47983;53.016;-2.260;2023-05-10T14:23:27;2.42;;;1.30;;
59306;SDS011;47983;53.016;-2.260;2023-05-10T14:25:56;4.35;;;1.38;;
59306;SDS011;47983;53.016;-2.260;2023-05-10T14:28:24;7.00;;;1.55;;
59306;SDS011;47983;53.016;-2.260;2023-05-10T14:30:53;4.25;;;1.50;;
59306;SDS011;47983;53.016;-2.260;2023-05-10T14:33:21;4.18;;;1.50;;
59306;SDS011;47983;53.016;-2.260;2023-05-10T14:35:49;4.18;;;1.65;;
59306;SDS011;47983;53.016;-2.260;2023-05-10T14:38:17;3.13;;;1.88;;
59306;SDS011;47983;53.016;-2.260;2023-05-10T14:40:45;6.57;;;2.15;;
59306;SDS011;47983;53.016;-2.260;2023-05-10T14:43:12;4.53;;;2.58;;
59306;SDS011;47983;53.016;-2.260;2023-05-10T14:45:40;3.70;;;2.50;;
59306;SDS011;47983;53.016;-2.260;2023-05-10T14:48:08;7.25;;;3.13;;
59306;SDS011;47983;53.016;-2.260;2023-05-10T14:50:39;9.25;;;3.45;;
59306;SDS011;47983;53.016;-2.260;2023-05-10T14:53:08;5.45;;;3.17;;
59306;SDS011;47983;53.016;-2.260;2023-05-10T14:55:36;6.22;;;3.53;;
59306;SDS011;47983;53.016;-2.260;2023-05-10T14:58:05;4.72;;;3.00;;
59306;SDS011;47983;53.016;-2.260;2023-05-10T15:00:33;3.47;;;2.15;;
59306;SDS011;47983;53.016;-2.260;2023-05-10T15:03:01;4.95;;;2.70;;
59306;SDS011;47983;53.016;-2.260;2023-05-10T15:05:31;2.88;;;2.10;;
59306;SDS011;47983;53.016;-2.260;2023-05-10T15:07:59;3.10;;;1.90;;
59306;SDS011;47983;53.016;-2.260;2023-05-10T15:10:27;3.92;;;1.90;;
59306;SDS011;47983;53.016;-2.260;2023-05-10T15:12:55;3.13;;;1.77;;
59306;SDS011;47983;53.016;-2.260;2023-05-10T15:15:22;3.50;;;1.80;;
59306;SDS011;47983;53.016;-2.260;2023-05-10T15:17:52;2.70;;;1.85;;
59306;SDS011;47983;53.016;-2.260;2023-05-10T15:20:20;2.03;;;1.20;;
59306;SDS011;47983;53.016;-2.260;2023-05-10T15:22:48;3.05;;;1.38;;
59306;SDS011;47983;53.016;-2.260;2023-05-10T15:25:16;3.60;;;1.40;;
59306;SDS011;47983;53.016;-2.260;2023-05-10T15:27:44;3.83;;;1.33;;
59306;SDS011;47983;53.016;-2.260;2023-05-10T15:30:12;5.13;;;1.38;;
59306;SDS011;47983;53.016;-2.260;2023-05-10T15:32:40;4.43;;;1.58;;
59306;SDS011;47983;53.016;-2.260;2023-05-10T15:35:09;10.73;;;2.28;;